Kenai Municipal Airport Kenai US
ICAO: PAEN
IATA:
Category: Medium
Scheduled Services:

Elevation: 99 ft
TransAlt. 18000 ft.

Airport Communications:
ATIS:120.3
ANCHORAGE CNTR:125.7
CTAF:121.3
RDO:122.65
GND:121.9
TWEB:117.6
TWR:121.3

PAEN Zoom In..

If you have problems with the map follow the link
https://www.worldairports.se/pages/airport.php?
ICAO=PAEN

Runways:

(A) RW 01L length 7830 ft width 150 ft
---- / hdg 12

(B) RW 01R length 2000 ft width 60 ft
---- / hdg 12

(C) RW 19L length 2000 ft width 60 ft
---- / hdg 192

(D) RW 19R length 7830 ft width 150 ft
ILS 108.90 / hdg 192

Location; PAEN
Day. 08 / Time. 04.53 Zulu
* Altimeter: 29.14
* Temperature: 03° c. 37.4°f.
* Wind from: 030° Speed 12 kn.
Dewpoint: 01° c.
Visibility: 10 Statute Miles.
Clouds: Few 11000 ft.

PAEN 080453Z 03012KT 10SM FEW110 03/01 A2914 RMK AO2 RAE01 SLP871 P0000 T00280006


Wind From 030°
Speed 12 kn.

 
 
jpsmedia worldairports.se 2019   terms of use